createdAt,value
2018-09-01T00:02:08.780Z,12.40
2018-09-01T00:04:39.554Z,12.40
2018-09-01T00:07:08.926Z,12.40
2018-09-01T00:09:38.311Z,12.30
2018-09-01T00:12:08.260Z,12.30
2018-09-01T00:14:37.120Z,12.40
2018-09-01T00:17:07.773Z,12.30
2018-09-01T00:19:37.637Z,12.30
2018-09-01T00:22:07.358Z,12.30
2018-09-01T00:24:36.397Z,12.20
2018-09-01T00:27:05.382Z,12.20
2018-09-01T00:29:36.416Z,12.20
2018-09-01T00:32:05.862Z,12.10
2018-09-01T00:34:35.039Z,12.10
2018-09-01T00:37:04.123Z,12.20
2018-09-01T00:39:42.334Z,12.10
2018-09-01T00:42:11.357Z,12.10
2018-09-01T00:44:40.835Z,12.10
2018-09-01T00:47:09.689Z,12.00
2018-09-01T00:49:40.399Z,12.00
2018-09-01T00:52:10.069Z,12.00
2018-09-01T00:54:38.986Z,12.00
2018-09-01T00:57:09.207Z,12.00
2018-09-01T00:59:38.329Z,12.00
2018-09-01T01:02:07.116Z,11.90
2018-09-01T01:04:35.973Z,11.90
2018-09-01T01:07:05.162Z,11.90
2018-09-01T01:09:34.705Z,11.90
2018-09-01T01:12:03.552Z,11.90
2018-09-01T01:14:32.601Z,11.90
2018-09-01T01:17:01.522Z,11.90
2018-09-01T01:19:30.770Z,11.80
2018-09-01T01:21:59.947Z,11.90
2018-09-01T01:24:30.833Z,11.90
2018-09-01T01:27:01.306Z,11.80
2018-09-01T01:29:32.051Z,11.80
2018-09-01T01:32:01.724Z,11.80
2018-09-01T01:34:30.680Z,11.80
2018-09-01T01:36:59.924Z,11.80
2018-09-01T01:39:29.665Z,11.70
2018-09-01T01:41:59.367Z,11.70
2018-09-01T01:44:28.314Z,11.70
2018-09-01T01:46:57.291Z,11.70
2018-09-01T01:49:27.046Z,11.70
2018-09-01T01:51:55.982Z,11.60
2018-09-01T01:54:24.951Z,11.60
2018-09-01T01:56:56.375Z,11.60
2018-09-01T01:59:29.405Z,11.60
2018-09-01T02:02:03.372Z,11.60
2018-09-01T02:04:32.402Z,11.60
2018-09-01T02:07:01.238Z,11.60
2018-09-01T02:09:30.027Z,11.50
2018-09-01T02:11:59.124Z,11.50
2018-09-01T02:14:28.617Z,11.50
2018-09-01T02:16:57.564Z,11.40
2018-09-01T02:19:26.584Z,11.50
2018-09-01T02:21:55.557Z,11.40
2018-09-01T02:24:24.368Z,11.50
2018-09-01T02:26:53.453Z,11.40
2018-09-01T02:29:22.243Z,11.40
2018-09-01T02:31:53.679Z,11.40
2018-09-01T02:34:26.548Z,11.30
2018-09-01T02:36:55.859Z,11.30
2018-09-01T02:39:24.781Z,11.30
2018-09-01T02:41:53.687Z,11.20
2018-09-01T02:44:22.643Z,11.20
2018-09-01T02:46:51.551Z,11.20
2018-09-01T02:49:20.344Z,11.10
2018-09-01T02:51:49.278Z,11.10
2018-09-01T02:54:18.282Z,11.20
2018-09-01T02:56:47.303Z,11.20
2018-09-01T02:59:16.159Z,11.20
2018-09-01T03:01:45.059Z,11.10
2018-09-01T03:04:13.841Z,11.20
2018-09-01T03:06:51.277Z,11.10
2018-09-01T03:09:20.568Z,11.10
2018-09-01T03:11:49.693Z,11.10
2018-09-01T03:14:18.669Z,11.10
2018-09-01T03:16:47.475Z,11.10
2018-09-01T03:19:16.456Z,11.00
2018-09-01T03:21:45.294Z,11.00
2018-09-01T03:24:14.098Z,11.00
2018-09-01T03:26:43.050Z,11.00
2018-09-01T03:29:12.655Z,11.10
2018-09-01T03:31:41.621Z,11.00
2018-09-01T03:34:11.086Z,11.00
2018-09-01T03:36:40.396Z,11.00
2018-09-01T03:39:09.777Z,11.00
2018-09-01T03:41:39.486Z,11.00
2018-09-01T03:44:08.517Z,11.00
2018-09-01T03:46:37.416Z,11.00
2018-09-01T03:49:07.877Z,11.00
2018-09-01T03:51:36.769Z,11.00
2018-09-01T03:54:05.735Z,11.00
2018-09-01T03:56:34.562Z,10.90
2018-09-01T03:59:03.545Z,10.90
2018-09-01T04:01:32.373Z,10.90
2018-09-01T04:04:01.314Z,10.90
2018-09-01T04:06:30.310Z,10.90
2018-09-01T04:08:59.245Z,10.90
2018-09-01T04:11:28.305Z,10.90
2018-09-01T04:13:57.461Z,10.80
2018-09-01T04:16:26.275Z,10.80
2018-09-01T04:18:54.995Z,10.80
2018-09-01T04:21:23.953Z,10.80
2018-09-01T04:23:52.807Z,10.80
2018-09-01T04:26:21.732Z,10.80
2018-09-01T04:28:50.572Z,10.80
2018-09-01T04:31:19.457Z,10.90
2018-09-01T04:33:48.302Z,10.90
2018-09-01T04:36:17.291Z,10.80
2018-09-01T04:38:46.173Z,10.80
2018-09-01T04:41:15.254Z,10.80
2018-09-01T04:43:44.211Z,10.80
2018-09-01T04:46:13.445Z,10.90
2018-09-01T04:48:42.312Z,11.00
2018-09-01T04:51:11.217Z,11.00
2018-09-01T04:53:40.097Z,11.10
2018-09-01T04:56:09.197Z,11.20
2018-09-01T04:58:38.287Z,11.30
2018-09-01T05:01:07.495Z,11.30
2018-09-01T05:03:36.219Z,11.30
2018-09-01T05:06:05.253Z,11.30
2018-09-01T05:08:34.113Z,11.20
2018-09-01T05:11:02.973Z,11.20
2018-09-01T05:13:31.878Z,11.20
2018-09-01T05:16:00.950Z,11.20
2018-09-01T05:18:30.148Z,11.20
2018-09-01T05:20:58.999Z,11.20
2018-09-01T05:23:27.886Z,11.20
2018-09-01T05:25:56.660Z,11.20
2018-09-01T05:28:25.827Z,11.20
2018-09-01T05:30:54.837Z,11.20
2018-09-01T05:33:24.327Z,11.20
2018-09-01T05:35:53.336Z,11.20
2018-09-01T05:38:22.525Z,11.20
2018-09-01T05:40:51.328Z,11.20
2018-09-01T05:43:20.124Z,11.30
2018-09-01T05:45:49.089Z,11.30
2018-09-01T05:48:18.011Z,11.30
2018-09-01T05:50:46.969Z,11.40
2018-09-01T05:53:15.781Z,11.40
2018-09-01T05:55:44.601Z,11.40
2018-09-01T05:58:13.410Z,11.40
2018-09-01T06:00:48.892Z,11.50
2018-09-01T06:03:18.366Z,11.50
2018-09-01T06:05:48.070Z,11.50
2018-09-01T06:08:17.267Z,11.50
2018-09-01T06:10:46.105Z,11.60
2018-09-01T06:13:15.160Z,11.60
2018-09-01T06:15:44.056Z,11.70
2018-09-01T06:18:12.984Z,11.70
2018-09-01T06:20:42.145Z,11.70
2018-09-01T06:23:11.078Z,11.70
2018-09-01T06:25:39.919Z,11.70
2018-09-01T06:28:27.554Z,11.70
2018-09-01T06:30:56.942Z,11.70
2018-09-01T06:33:25.873Z,11.80
2018-09-01T06:35:54.768Z,11.80
2018-09-01T06:38:23.699Z,11.90
2018-09-01T06:40:52.723Z,11.90
2018-09-01T06:43:21.664Z,12.00
2018-09-01T06:45:50.646Z,12.00
2018-09-01T06:48:19.617Z,12.10
2018-09-01T06:50:48.525Z,12.20
2018-09-01T06:53:17.437Z,12.30
2018-09-01T06:55:46.358Z,12.30
2018-09-01T06:58:15.209Z,12.30
2018-09-01T07:00:44.057Z,12.40
2018-09-01T07:03:12.894Z,12.40
2018-09-01T07:05:41.671Z,12.50
2018-09-01T07:08:10.495Z,12.50
2018-09-01T07:10:39.340Z,12.60
2018-09-01T07:13:08.150Z,12.80
2018-09-01T07:15:37.131Z,12.90
2018-09-01T07:18:06.014Z,13.10
2018-09-01T07:20:34.900Z,13.30
2018-09-01T07:23:03.789Z,13.50
2018-09-01T07:25:32.684Z,13.80
2018-09-01T07:28:01.465Z,14.00
2018-09-01T07:30:30.560Z,14.20
2018-09-01T07:32:59.338Z,14.30
2018-09-01T07:35:28.282Z,14.30
2018-09-01T07:37:57.174Z,14.30
2018-09-01T07:40:26.150Z,14.20
2018-09-01T07:42:54.975Z,14.20
2018-09-01T07:45:23.985Z,14.20
2018-09-01T07:47:52.802Z,14.10
2018-09-01T07:50:21.630Z,14.20
2018-09-01T07:52:50.661Z,14.30
2018-09-01T07:55:19.514Z,14.40
2018-09-01T07:57:48.405Z,14.40
2018-09-01T08:00:17.362Z,14.30
2018-09-01T08:02:46.219Z,14.50
2018-09-01T08:05:15.172Z,14.50
2018-09-01T08:07:44.240Z,14.50
2018-09-01T08:10:13.106Z,14.60
2018-09-01T08:12:42.226Z,14.70
2018-09-01T08:15:11.198Z,14.70
2018-09-01T08:17:40.116Z,14.70
2018-09-01T08:20:09.069Z,14.70
2018-09-01T08:22:38.326Z,14.80
2018-09-01T08:25:08.229Z,14.90
2018-09-01T08:27:37.991Z,15.00
2018-09-01T08:30:08.399Z,15.10
2018-09-01T08:32:37.194Z,15.10
2018-09-01T08:35:07.028Z,15.10
2018-09-01T08:37:35.909Z,15.10
2018-09-01T08:40:05.251Z,15.20
2018-09-01T08:42:34.293Z,15.20
2018-09-01T08:45:03.185Z,15.40
2018-09-01T08:47:32.262Z,15.50
2018-09-01T08:50:01.316Z,15.70
2018-09-01T08:52:30.384Z,15.80
2018-09-01T08:54:59.769Z,15.90
2018-09-01T08:57:28.668Z,16.00
2018-09-01T08:59:57.553Z,16.00
2018-09-01T09:02:27.510Z,16.00
2018-09-01T09:04:56.400Z,16.00
2018-09-01T09:07:25.398Z,16.00
2018-09-01T09:09:54.348Z,16.10
2018-09-01T09:12:24.769Z,16.10
2018-09-01T09:14:53.665Z,16.30
2018-09-01T09:17:22.701Z,16.40
2018-09-01T09:19:51.610Z,16.50
2018-09-01T09:22:20.623Z,16.60
2018-09-01T09:24:49.473Z,16.70
2018-09-01T09:27:18.408Z,16.70
2018-09-01T09:29:47.406Z,16.70
2018-09-01T09:32:16.364Z,16.80
2018-09-01T09:34:45.341Z,16.80
2018-09-01T09:37:15.183Z,16.80
2018-09-01T09:39:44.047Z,17.00
2018-09-01T09:42:12.932Z,17.10
2018-09-01T09:44:42.193Z,17.20
2018-09-01T09:47:11.579Z,17.40
2018-09-01T09:49:40.898Z,17.60
2018-09-01T09:52:10.104Z,17.70
2018-09-01T09:54:39.675Z,17.70
2018-09-01T09:57:08.925Z,17.70
2018-09-01T09:59:37.855Z,17.70
2018-09-01T10:02:07.750Z,17.70
2018-09-01T10:04:37.500Z,17.70
2018-09-01T10:07:06.914Z,17.60
2018-09-01T10:09:35.813Z,17.70
2018-09-01T10:12:04.865Z,17.80
2018-09-01T10:14:35.007Z,17.80
2018-09-01T10:17:05.130Z,17.80
2018-09-01T10:19:40.211Z,17.90
2018-09-01T10:22:09.919Z,17.90
2018-09-01T10:24:38.785Z,17.90
2018-09-01T10:27:09.369Z,17.90
2018-09-01T10:29:38.129Z,18.00
2018-09-01T10:32:07.488Z,18.20
2018-09-01T10:34:37.392Z,18.40
2018-09-01T10:37:06.398Z,18.60
2018-09-01T10:39:35.534Z,19.00
2018-09-01T10:42:04.468Z,19.20
2018-09-01T10:44:33.760Z,19.50
2018-09-01T10:47:07.661Z,19.70
2018-09-01T10:49:40.396Z,19.70
2018-09-01T10:52:09.502Z,19.70
2018-09-01T10:54:40.203Z,19.40
2018-09-01T10:57:09.978Z,19.20
2018-09-01T10:59:40.118Z,19.10
2018-09-01T11:02:09.846Z,19.00
2018-09-01T11:04:39.100Z,19.00
2018-09-01T11:07:09.500Z,19.00
2018-09-01T11:09:39.137Z,19.10
2018-09-01T11:12:08.836Z,19.20
2018-09-01T11:14:39.498Z,19.30
2018-09-01T11:17:09.164Z,19.50
2018-09-01T11:19:40.473Z,19.70
2018-09-01T11:22:09.928Z,19.90
2018-09-01T11:24:38.941Z,20.20
2018-09-01T11:27:07.981Z,20.50
2018-09-01T11:29:37.167Z,20.70
2018-09-01T11:32:06.613Z,20.70
2018-09-01T11:34:36.028Z,20.70
2018-09-01T11:37:06.133Z,20.70
2018-09-01T11:39:41.262Z,20.70
2018-09-01T11:42:11.817Z,20.60
2018-09-01T11:44:42.784Z,20.50
2018-09-01T11:47:12.642Z,20.40
2018-09-01T11:49:41.535Z,20.50
2018-09-01T11:52:10.514Z,20.60
2018-09-01T11:54:39.345Z,20.70
2018-09-01T11:57:08.276Z,20.80
2018-09-01T11:59:38.282Z,21.00
2018-09-01T12:02:08.431Z,21.10
2018-09-01T12:04:39.280Z,21.10
2018-09-01T12:07:08.647Z,21.30
2018-09-01T12:09:37.725Z,21.40
2018-09-01T12:12:09.348Z,21.40
2018-09-01T12:14:38.925Z,21.40
2018-09-01T12:17:08.422Z,21.60
2018-09-01T12:19:38.316Z,21.70
2018-09-01T12:22:09.042Z,21.80
2018-09-01T12:24:38.987Z,21.80
2018-09-01T12:27:08.926Z,21.90
2018-09-01T12:29:37.854Z,22.00
2018-09-01T12:32:06.874Z,22.10
2018-09-01T12:34:40.416Z,22.30
2018-09-01T12:37:09.461Z,22.40
2018-09-01T12:39:39.210Z,22.90
2018-09-01T12:42:09.173Z,23.50
2018-09-01T12:44:39.021Z,23.80
2018-09-01T12:47:08.901Z,24.40
2018-09-01T12:49:38.888Z,25.10
2018-09-01T12:52:09.055Z,25.20
2018-09-01T12:54:39.019Z,25.20
2018-09-01T12:57:10.257Z,27.00
2018-09-01T12:59:40.553Z,27.30
2018-09-01T13:02:09.622Z,26.60
2018-09-01T13:04:38.598Z,26.00
2018-09-01T13:07:07.583Z,25.50
2018-09-01T13:09:37.566Z,25.10
2018-09-01T13:12:08.557Z,24.70
2018-09-01T13:14:38.541Z,24.30
2018-09-01T13:17:10.536Z,24.20
2018-09-01T13:19:40.541Z,23.90
2018-09-01T13:22:11.304Z,23.70
2018-09-01T13:24:40.404Z,23.40
2018-09-01T13:27:09.325Z,23.10
2018-09-01T13:29:39.906Z,22.80
2018-09-01T13:32:11.217Z,22.70
2018-09-01T13:34:41.434Z,22.60
2018-09-01T13:37:10.301Z,22.50
2018-09-01T13:39:40.061Z,22.40
2018-09-01T13:42:09.718Z,22.40
2018-09-01T13:44:39.731Z,22.40
2018-09-01T13:47:08.653Z,22.40
2018-09-01T13:49:39.489Z,22.70
2018-09-01T13:52:10.078Z,23.10
2018-09-01T13:54:40.182Z,26.80
2018-09-01T13:57:14.595Z,32.30
2018-09-01T13:59:43.600Z,36.10
2018-09-01T14:02:13.408Z,35.40
2018-09-01T14:04:44.616Z,32.90
2018-09-01T14:07:13.797Z,30.20
2018-09-01T14:09:42.733Z,28.00
2018-09-01T14:12:11.677Z,26.30
2018-09-01T14:14:44.710Z,25.20
2018-09-01T14:17:13.669Z,24.50
2018-09-01T14:19:42.839Z,23.90
2018-09-01T14:22:11.738Z,23.60
2018-09-01T14:24:41.434Z,23.40
2018-09-01T14:27:20.412Z,23.30
2018-09-01T14:29:52.954Z,23.30
2018-09-01T14:32:22.277Z,23.30
2018-09-01T14:34:52.191Z,23.30
2018-09-01T14:37:21.410Z,23.30
2018-09-01T14:39:52.103Z,23.30
2018-09-01T14:42:26.416Z,23.30
2018-09-01T14:45:06.054Z,23.40
2018-09-01T14:47:35.948Z,27.70
2018-09-01T14:50:05.605Z,28.60
2018-09-01T14:52:35.425Z,27.20
2018-09-01T14:55:04.702Z,25.90
2018-09-01T14:57:35.131Z,25.40
2018-09-01T15:00:04.455Z,26.50
2018-09-01T15:02:38.988Z,26.60
2018-09-01T15:05:08.969Z,26.00
2018-09-01T15:07:38.530Z,25.30
2018-09-01T15:10:12.581Z,24.50
2018-09-01T15:12:42.613Z,23.90
2018-09-01T15:15:11.786Z,23.40
2018-09-01T15:17:41.673Z,22.90
2018-09-01T15:20:10.626Z,22.60
2018-09-01T15:22:50.462Z,22.30
2018-09-01T15:25:19.476Z,22.10
2018-09-01T15:27:48.394Z,21.90
2018-09-01T15:30:17.449Z,21.90
2018-09-01T15:32:49.907Z,21.80
2018-09-01T15:35:18.961Z,21.80
2018-09-01T15:37:47.985Z,21.80
2018-09-01T15:40:17.073Z,21.70
2018-09-01T15:42:48.947Z,21.70
2018-09-01T15:45:17.971Z,21.60
2018-09-01T15:47:47.077Z,21.50
2018-09-01T15:50:16.220Z,21.50
2018-09-01T15:52:45.205Z,21.40
2018-09-01T15:55:14.116Z,21.40
2018-09-01T15:57:43.113Z,21.30
2018-09-01T16:00:12.543Z,21.30
2018-09-01T16:05:23.720Z,21.20
2018-09-01T16:07:52.616Z,21.20
2018-09-01T16:10:21.649Z,21.20
2018-09-01T16:12:50.976Z,21.20
2018-09-01T16:15:21.112Z,21.20
2018-09-01T16:17:50.950Z,21.30
2018-09-01T16:20:20.316Z,21.30
2018-09-01T16:22:50.766Z,21.30
2018-09-01T16:25:20.785Z,21.40
2018-09-01T16:27:51.473Z,21.40
2018-09-01T16:30:21.129Z,21.40
2018-09-01T16:32:50.037Z,21.40
2018-09-01T16:35:19.874Z,21.40
2018-09-01T16:37:49.134Z,21.40
2018-09-01T16:40:18.294Z,21.40
2018-09-01T16:42:47.680Z,21.40
2018-09-01T16:45:16.582Z,21.30
2018-09-01T16:47:45.486Z,21.20
2018-09-01T16:50:14.382Z,21.10
2018-09-01T16:52:43.418Z,21.00
2018-09-01T16:55:12.404Z,21.00
2018-09-01T16:57:42.083Z,21.00
2018-09-01T17:00:11.024Z,20.90
2018-09-01T17:02:40.216Z,20.80
2018-09-01T17:05:09.120Z,20.60
2018-09-01T17:07:37.992Z,20.50
2018-09-01T17:10:07.901Z,20.40
2018-09-01T17:12:42.432Z,20.30
2018-09-01T17:15:11.475Z,20.10
2018-09-01T17:17:40.735Z,20.00
2018-09-01T17:20:09.678Z,19.90
2018-09-01T17:22:41.249Z,19.80
2018-09-01T17:25:10.201Z,19.70
2018-09-01T17:27:46.139Z,19.60
2018-09-01T17:30:15.058Z,19.60
2018-09-01T17:32:46.226Z,19.50
2018-09-01T17:35:15.301Z,19.50
2018-09-01T17:37:44.167Z,19.40
2018-09-01T17:40:12.989Z,19.30
2018-09-01T17:42:47.567Z,19.20
2018-09-01T17:45:16.621Z,19.20
2018-09-01T17:47:45.816Z,19.10
2018-09-01T17:50:15.218Z,19.00
2018-09-01T17:52:51.166Z,19.00
2018-09-01T17:55:30.170Z,18.90
2018-09-01T17:57:59.782Z,18.80
2018-09-01T18:00:28.803Z,18.70
2018-09-01T18:02:59.788Z,18.60
2018-09-01T18:05:28.683Z,18.50
2018-09-01T18:07:57.604Z,18.40
2018-09-01T18:10:26.909Z,18.40
2018-09-01T18:12:58.547Z,18.30
2018-09-01T18:15:29.545Z,18.20
2018-09-01T18:17:59.650Z,18.10
2018-09-01T18:20:28.555Z,18.00
2018-09-01T18:23:05.608Z,17.90
2018-09-01T18:25:37.738Z,17.80
2018-09-01T18:28:07.526Z,17.70
2018-09-01T18:30:40.672Z,17.70
2018-09-01T18:33:11.411Z,17.60
2018-09-01T18:35:40.378Z,17.50
2018-09-01T18:38:11.135Z,17.50
2018-09-01T18:40:40.049Z,17.40
2018-09-01T18:43:12.276Z,17.40
2018-09-01T18:45:41.220Z,17.30
2018-09-01T18:48:11.036Z,17.20
2018-09-01T18:50:40.909Z,17.20
2018-09-01T18:53:09.928Z,17.10
2018-09-01T18:55:40.186Z,17.00
2018-09-01T18:58:09.131Z,17.00
2018-09-01T19:00:41.961Z,17.00
2018-09-01T19:03:16.972Z,16.90
2018-09-01T19:05:46.523Z,16.80
2018-09-01T19:08:19.211Z,16.80
2018-09-01T19:10:51.117Z,16.70
2018-09-01T19:13:27.830Z,16.70
2018-09-01T19:15:56.719Z,16.60
2018-09-01T19:18:26.465Z,16.60
2018-09-01T19:20:57.366Z,16.60
2018-09-01T19:23:28.980Z,16.50
2018-09-01T19:25:59.760Z,16.50
2018-09-01T19:28:30.300Z,16.40
2018-09-01T19:31:00.885Z,16.40
2018-09-01T19:33:35.059Z,16.30
2018-09-01T19:36:05.065Z,16.30
2018-09-01T19:38:36.606Z,16.30
2018-09-01T19:41:17.895Z,16.20
2018-09-01T19:43:49.469Z,16.20
2018-09-01T19:46:20.881Z,16.10
2018-09-01T19:48:50.745Z,16.10
2018-09-01T19:51:26.516Z,16.00
2018-09-01T19:53:55.409Z,16.00
2018-09-01T19:56:24.551Z,15.90
2018-09-01T19:58:54.494Z,15.90
2018-09-01T20:01:23.491Z,15.90
2018-09-01T20:03:54.441Z,15.90
2018-09-01T20:06:23.436Z,15.80
2018-09-01T20:08:53.637Z,15.80
2018-09-01T20:11:23.345Z,15.80
2018-09-01T20:13:53.723Z,15.70
2018-09-01T20:16:23.072Z,15.70
2018-09-01T20:18:52.012Z,15.60
2018-09-01T20:21:26.725Z,15.60
2018-09-01T20:24:01.301Z,15.60
2018-09-01T20:26:31.461Z,15.50
2018-09-01T20:29:02.967Z,15.50
2018-09-01T20:31:35.144Z,15.50
2018-09-01T20:34:11.911Z,15.40
2018-09-01T20:36:41.834Z,15.40
2018-09-01T20:39:10.863Z,15.30
2018-09-01T20:41:48.575Z,15.30
2018-09-01T20:44:17.444Z,15.20
2018-09-01T20:46:47.053Z,15.10
2018-09-01T20:49:16.005Z,15.10
2018-09-01T20:51:46.096Z,15.10
2018-09-01T20:54:14.959Z,15.00
2018-09-01T20:56:43.875Z,14.90
2018-09-01T20:59:12.830Z,14.90
2018-09-01T21:01:41.807Z,14.90
2018-09-01T21:04:10.904Z,14.90
2018-09-01T21:06:40.144Z,14.80
2018-09-01T21:09:10.144Z,14.80
2018-09-01T21:11:39.598Z,14.80
2018-09-01T21:14:11.022Z,14.70
2018-09-01T21:16:45.836Z,14.60
2018-09-01T21:19:15.192Z,14.60
2018-09-01T21:21:44.061Z,14.50
2018-09-01T21:24:13.129Z,14.50
2018-09-01T21:26:42.549Z,14.40
2018-09-01T21:29:11.649Z,14.40
2018-09-01T21:31:41.421Z,14.40
2018-09-01T21:34:10.566Z,14.30
2018-09-01T21:36:40.233Z,14.30
2018-09-01T21:39:09.563Z,14.30
2018-09-01T21:41:38.626Z,14.30
2018-09-01T21:44:07.694Z,14.20
2018-09-01T21:46:36.595Z,14.20
2018-09-01T21:49:05.488Z,14.20
2018-09-01T21:51:34.415Z,14.10
2018-09-01T21:54:03.435Z,14.10
2018-09-01T21:56:32.468Z,14.10
2018-09-01T21:59:01.681Z,14.10
2018-09-01T22:01:35.671Z,14.10
2018-09-01T22:04:04.794Z,14.00
2018-09-01T22:06:33.813Z,14.00
2018-09-01T22:09:04.885Z,14.00
2018-09-01T22:11:33.944Z,13.90
2018-09-01T22:14:13.569Z,13.80
2018-09-01T22:16:43.431Z,13.80
2018-09-01T22:19:15.926Z,13.70
2018-09-01T22:21:44.887Z,13.70
2018-09-01T22:24:13.746Z,13.60
2018-09-01T22:26:42.652Z,13.70
2018-09-01T22:29:11.694Z,13.60
2018-09-01T22:31:40.698Z,13.60
2018-09-01T22:34:09.854Z,13.50
2018-09-01T22:36:38.726Z,13.50
2018-09-01T22:39:07.883Z,13.50
2018-09-01T22:41:36.776Z,13.40
2018-09-01T22:44:05.636Z,13.40
2018-09-01T22:46:35.376Z,13.30
2018-09-01T22:49:04.361Z,13.30
2018-09-01T22:51:33.199Z,13.30
2018-09-01T22:54:02.578Z,13.20
2018-09-01T22:56:32.497Z,13.20
2018-09-01T22:59:01.447Z,13.20
2018-09-01T23:01:32.179Z,13.10
2018-09-01T23:04:01.282Z,13.10
2018-09-01T23:06:30.284Z,13.10
2018-09-01T23:08:59.647Z,13.00
2018-09-01T23:11:28.446Z,13.00
2018-09-01T23:13:57.354Z,13.00
2018-09-01T23:16:26.183Z,13.00
2018-09-01T23:18:55.133Z,12.90
2018-09-01T23:21:24.672Z,12.90
2018-09-01T23:23:54.069Z,12.90
2018-09-01T23:26:22.911Z,12.80
2018-09-01T23:28:51.774Z,12.80
2018-09-01T23:31:20.717Z,12.80
2018-09-01T23:33:50.725Z,12.80
2018-09-01T23:36:19.622Z,12.80
2018-09-01T23:38:48.683Z,12.80
2018-09-01T23:41:17.709Z,12.80
2018-09-01T23:43:48.535Z,12.80
2018-09-01T23:46:17.335Z,12.80
2018-09-01T23:48:46.227Z,12.80
2018-09-01T23:51:15.587Z,12.70
2018-09-01T23:53:45.042Z,12.70
2018-09-01T23:56:13.972Z,12.70
2018-09-01T23:58:44.707Z,12.70
